Time;durP1;ratioP1;P1;durP2;ratioP2;P2;SDS_P1;SDS_P2;PMS_P1;PMS_P2;Temp;Humidity;BMP_temperature;BMP_pressure;BME280_temperature;BME280_humidity;BME280_pressure;Samples;Min_cycle;Max_cycle;Signal;HPM_P1;HPM_P2
2022/12/29 00:01:32;;;;;;;2.17;0.98;;;22.20;54.30;;;;;;5106144;28;20051;-49
2022/12/29 00:03:59;;;;;;;3.70;0.60;;;22.20;54.30;;;;;;5106852;28;20063;-54
2022/12/29 00:06:27;;;;;;;1.75;0.47;;;22.10;54.20;;;;;;5107958;28;20039;-54
2022/12/29 00:08:55;;;;;;;0.75;0.20;;;22.10;54.10;;;;;;5077968;28;20080;-54
2022/12/29 00:11:25;;;;;;;0.60;0.30;;;22.10;54.00;;;;;;5082067;28;20456;-53
2022/12/29 00:16:38;;;;;;;0.47;0.20;;;22.00;54.00;;;;;;5087951;28;20063;-55
2022/12/29 00:19:06;;;;;;;1.23;0.40;;;22.00;53.90;;;;;;5091345;28;20047;-55
2022/12/29 00:35:29;;;;;;;1.08;0.30;;;21.90;54.00;;;;;;5090758;28;20286;-52
2022/12/29 00:46:17;;;;;;;2.60;0.40;;;21.80;54.60;;;;;;5091644;28;20040;-52
2022/12/29 00:51:28;;;;;;;0.77;0.20;;;21.80;54.70;;;;;;5090259;28;20059;-54
2022/12/29 00:53:55;;;;;;;0.40;0.15;;;21.70;54.80;;;;;;5090135;28;20145;-54
2022/12/29 00:56:24;;;;;;;0.75;0.10;;;21.70;55.20;;;;;;5088824;28;20048;-53
2022/12/29 00:58:51;;;;;;;1.02;0.10;;;21.70;54.80;;;;;;5069598;28;20055;-49
2022/12/29 01:01:18;;;;;;;0.85;0.10;;;21.70;54.80;;;;;;5069206;28;20330;-50
2022/12/29 01:03:45;;;;;;;0.85;0.10;;;21.70;55.20;;;;;;5069961;28;20054;-53
2022/12/29 01:06:13;;;;;;;0.68;0.10;;;21.70;55.40;;;;;;5073044;28;20523;-54
2022/12/29 01:08:40;;;;;;;0.75;0.47;;;21.70;55.50;;;;;;5090093;28;20060;-53
2022/12/29 01:11:08;;;;;;;0.10;0.10;;;21.70;55.50;;;;;;5088338;28;20093;-54
2022/12/29 01:13:38;;;;;;;0.55;0.55;;;21.70;55.60;;;;;;5089797;28;20135;-54
2022/12/29 01:16:05;;;;;;;0.63;0.10;;;21.70;55.80;;;;;;5087968;28;20048;-53
2022/12/29 01:18:32;;;;;;;1.27;0.10;;;21.60;55.90;;;;;;5088115;28;20040;-53
2022/12/29 01:21:01;;;;;;;1.75;0.30;;;21.60;56.00;;;;;;5089607;28;20070;-52
2022/12/29 01:23:28;;;;;;;0.68;0.15;;;21.60;56.00;;;;;;5089795;28;20060;-55
2022/12/29 01:25:55;;;;;;;0.57;0.57;;;21.60;55.90;;;;;;5090834;28;20490;-52
2022/12/29 01:28:24;;;;;;;0.85;0.10;;;21.60;55.70;;;;;;5108901;27;20576;-52
2022/12/29 01:30:53;;;;;;;0.10;0.10;;;21.60;55.60;;;;;;5109329;28;20396;-54
2022/12/29 01:33:20;;;;;;;0.85;0.10;;;21.60;56.00;;;;;;5108570;28;20066;-52
2022/12/29 01:35:47;;;;;;;0.73;0.45;;;21.60;56.10;;;;;;5110109;27;20147;-52
2022/12/29 01:38:14;;;;;;;0.30;0.00;;;21.50;55.90;;;;;;5108251;28;20047;-50
2022/12/29 01:40:45;;;;;;;0.63;0.10;;;21.60;56.10;;;;;;5100699;28;20067;-53
2022/12/29 01:43:14;;;;;;;0.20;0.10;;;21.60;56.20;;;;;;5087952;28;20040;-53
2022/12/29 01:45:48;;;;;;;0.32;0.10;;;21.50;56.20;;;;;;5079740;28;20044;-50
2022/12/29 01:48:19;;;;;;;0.10;0.10;;;21.50;56.30;;;;;;5069001;28;20056;-51
2022/12/29 01:50:50;;;;;;;0.90;0.10;;;21.50;56.30;;;;;;5069100;28;20048;-49
2022/12/29 01:53:22;;;;;;;0.10;0.00;;;21.50;56.30;;;;;;5073308;28;20059;-51
2022/12/29 01:55:52;;;;;;;2.28;0.10;;;21.50;56.40;;;;;;5087944;28;20040;-49
2022/12/29 01:58:22;;;;;;;1.48;0.00;;;21.50;56.30;;;;;;5087670;28;20785;-54
2022/12/29 02:00:49;;;;;;;0.10;0.10;;;21.50;56.30;;;;;;5087529;28;20048;-52
2022/12/29 02:03:20;;;;;;;0.25;0.00;;;21.50;56.30;;;;;;5088914;28;20044;-52
2022/12/29 02:05:52;;;;;;;2.38;0.10;;;21.50;56.30;;;;;;5088813;28;20044;-53
2022/12/29 02:08:21;;;;;;;2.20;0.00;;;21.40;56.30;;;;;;5070919;28;20080;-50
2022/12/29 02:10:48;;;;;;;1.15;0.00;;;21.40;56.30;;;;;;5089965;28;20040;-53
2022/12/29 02:13:17;;;;;;;0.20;0.00;;;21.40;57.10;;;;;;5107358;28;20044;-51
2022/12/29 02:15:54;;;;;;;0.65;0.03;;;21.40;56.40;;;;;;5107806;28;20089;-52
2022/12/29 02:18:33;;;;;;;1.23;0.10;;;21.40;56.40;;;;;;5107236;28;20085;-53
2022/12/29 02:21:39;;;;;;;1.20;0.10;;;21.40;56.60;;;;;;5087312;28;20047;-54
2022/12/29 02:24:46;;;;;;;0.93;0.00;;;21.40;56.50;;;;;;5087002;28;20485;-52
2022/12/29 02:27:53;;;;;;;0.00;0.00;;;21.40;56.70;;;;;;5088268;28;20060;-53
2022/12/29 02:30:44;;;;;;;0.10;0.00;;;21.30;56.50;;;;;;5085335;28;20059;-52
2022/12/29 02:33:26;;;;;;;0.35;0.35;;;21.40;56.70;;;;;;5087262;28;20089;-52
2022/12/29 02:36:01;;;;;;;0.93;0.00;;;21.30;56.80;;;;;;5066782;28;20094;-51
2022/12/29 02:38:43;;;;;;;0.38;0.10;;;21.30;56.80;;;;;;5085569;28;20429;-52
2022/12/29 02:41:20;;;;;;;0.10;0.10;;;21.30;56.70;;;;;;5047560;28;20072;-54
2022/12/29 02:43:54;;;;;;;0.05;0.00;;;21.30;56.80;;;;;;5046330;28;20056;-53
2022/12/29 02:46:29;;;;;;;2.15;0.30;;;21.30;56.70;;;;;;5046659;28;20095;-52
2022/12/29 02:49:05;;;;;;;0.30;0.00;;;21.30;57.10;;;;;;5046475;28;20045;-53
2022/12/29 02:51:36;;;;;;;1.05;0.00;;;21.20;56.50;;;;;;5046592;28;20820;-54
2022/12/29 02:56:49;;;;;;;0.20;0.00;;;21.20;56.50;;;;;;5029385;28;20049;-55
2022/12/29 02:59:17;;;;;;;0.00;0.00;;;21.20;56.30;;;;;;5046271;28;20052;-54
2022/12/29 03:02:20;;;;;;;0.10;0.00;;;21.20;56.40;;;;;;5053339;28;20515;-55
2022/12/29 03:05:16;;;;;;;1.23;0.08;;;21.20;56.30;;;;;;5054304;28;20554;-52
2022/12/29 03:07:51;;;;;;;1.13;0.55;;;21.20;56.40;;;;;;5062731;28;20041;-51
2022/12/29 03:10:31;;;;;;;0.08;0.00;;;21.10;56.30;;;;;;5056589;28;20123;-49
2022/12/29 03:16:02;;;;;;;0.65;0.03;;;21.10;56.50;;;;;;5046228;28;20044;-53
2022/12/29 03:18:40;;;;;;;1.27;0.00;;;21.10;56.60;;;;;;5046040;28;20045;-54
2022/12/29 03:21:12;;;;;;;0.10;0.00;;;21.10;56.70;;;;;;5047391;28;20053;-52
2022/12/29 03:23:43;;;;;;;0.88;0.00;;;21.00;56.70;;;;;;5044455;28;20048;-53
2022/12/29 03:26:13;;;;;;;0.10;0.00;;;21.00;56.80;;;;;;5025877;28;20422;-54
2022/12/29 03:28:47;;;;;;;4.03;0.03;;;21.10;56.70;;;;;;5025884;28;20049;-54
2022/12/29 03:31:19;;;;;;;0.10;0.10;;;21.00;56.60;;;;;;5039409;28;20087;-50
2022/12/29 03:33:51;;;;;;;0.10;0.00;;;21.00;56.50;;;;;;5045977;28;20401;-54
2022/12/29 03:36:28;;;;;;;0.75;0.00;;;21.00;56.50;;;;;;5045763;28;20048;-52
2022/12/29 03:39:00;;;;;;;1.33;0.00;;;21.10;56.50;;;;;;5048840;28;20041;-50
2022/12/29 03:41:32;;;;;;;3.15;0.10;;;21.00;56.30;;;;;;5086735;28;20949;-50
2022/12/29 03:44:01;;;;;;;0.75;0.00;;;21.00;56.90;;;;;;5085749;28;20048;-51
2022/12/29 03:46:28;;;;;;;1.65;0.00;;;21.00;56.30;;;;;;5092249;28;20136;-58
2022/12/29 03:48:57;;;;;;;0.40;0.00;;;21.00;56.30;;;;;;5107424;28;20058;-53
2022/12/29 03:51:24;;;;;;;0.00;0.00;;;21.00;56.30;;;;;;5105157;28;20120;-53
2022/12/29 03:53:52;;;;;;;3.60;0.10;;;21.00;56.20;;;;;;5106120;28;20058;-53
2022/12/29 03:56:19;;;;;;;0.00;0.00;;;21.00;56.20;;;;;;5105851;28;20055;-51
2022/12/29 03:58:48;;;;;;;0.73;0.00;;;20.90;56.10;;;;;;5105971;28;20048;-51
2022/12/29 04:01:20;;;;;;;0.80;0.10;;;20.90;56.10;;;;;;5105646;28;20074;-51
2022/12/29 04:03:47;;;;;;;0.40;0.08;;;20.90;56.00;;;;;;5089261;28;20051;-49
2022/12/29 04:06:15;;;;;;;0.30;0.00;;;20.90;55.90;;;;;;5086657;28;20050;-51
2022/12/29 04:08:50;;;;;;;1.83;0.35;;;20.90;55.80;;;;;;5085354;28;20626;-54
2022/12/29 04:11:17;;;;;;;1.08;0.10;;;20.90;55.80;;;;;;5081258;28;20047;-52
2022/12/29 04:13:44;;;;;;;0.77;0.15;;;20.90;55.90;;;;;;5065346;28;20044;-51
2022/12/29 04:16:15;;;;;;;2.38;0.10;;;20.90;55.90;;;;;;5065386;28;20048;-53
2022/12/29 04:18:42;;;;;;;1.17;0.00;;;20.90;56.00;;;;;;5068436;28;20043;-50
2022/12/29 04:21:10;;;;;;;2.33;0.00;;;20.90;55.90;;;;;;5087066;28;20044;-52
2022/12/29 04:23:41;;;;;;;0.40;0.00;;;20.90;56.10;;;;;;5065005;28;20084;-54
2022/12/29 04:26:11;;;;;;;0.38;0.10;;;20.90;56.10;;;;;;5084055;28;20139;-55
2022/12/29 04:28:51;;;;;;;1.23;0.00;;;20.90;56.10;;;;;;5104437;28;20040;-55
2022/12/29 04:31:33;;;;;;;0.25;0.00;;;20.80;56.00;;;;;;5102561;28;20062;-56
2022/12/29 04:34:00;;;;;;;1.38;0.10;;;20.90;56.10;;;;;;5085397;28;20055;-54
2022/12/29 04:36:28;;;;;;;0.57;0.00;;;20.90;56.00;;;;;;5086040;28;20048;-55
2022/12/29 04:38:56;;;;;;;0.75;0.00;;;20.90;55.90;;;;;;5087249;28;20493;-54
2022/12/29 04:41:23;;;;;;;2.30;0.10;;;20.90;55.90;;;;;;5084996;28;20109;-55
2022/12/29 04:43:50;;;;;;;1.95;0.20;;;20.80;55.80;;;;;;5068354;28;20047;-52
2022/12/29 04:46:17;;;;;;;2.13;0.20;;;20.90;55.90;;;;;;5085543;28;20424;-53
2022/12/29 04:48:52;;;;;;;1.40;0.00;;;20.80;55.80;;;;;;5085053;28;20067;-56
2022/12/29 04:51:49;;;;;;;1.52;0.20;;;20.80;55.70;;;;;;5023517;28;20057;-54
2022/12/29 04:54:19;;;;;;;0.47;0.00;;;20.80;55.70;;;;;;5023552;28;20045;-55
2022/12/29 04:56:51;;;;;;;0.63;0.00;;;20.80;55.60;;;;;;5006548;28;20072;-51
2022/12/29 04:59:18;;;;;;;1.83;0.05;;;20.80;55.60;;;;;;5023334;28;20041;-52
2022/12/29 05:01:48;;;;;;;1.17;0.00;;;20.80;55.60;;;;;;5006784;28;21090;-52
2022/12/29 05:04:15;;;;;;;1.45;0.00;;;20.80;55.60;;;;;;5026422;28;20049;-49
2022/12/29 05:06:44;;;;;;;0.65;0.00;;;20.80;55.60;;;;;;5010242;28;20061;-53
2022/12/29 05:09:11;;;;;;;1.52;0.10;;;20.80;55.40;;;;;;5026647;28;20049;-51
2022/12/29 05:11:40;;;;;;;3.15;0.10;;;20.80;55.40;;;;;;5010576;28;20133;-50
2022/12/29 05:14:09;;;;;;;1.85;0.10;;;20.80;55.40;;;;;;5010378;28;20120;-51
2022/12/29 05:16:37;;;;;;;0.10;0.03;;;20.80;55.30;;;;;;5010418;28;20124;-55
2022/12/29 05:19:04;;;;;;;0.40;0.05;;;20.80;55.30;;;;;;5026927;28;20137;-50
2022/12/29 05:21:32;;;;;;;0.40;0.00;;;20.80;55.30;;;;;;5026440;28;20058;-54
2022/12/29 05:24:00;;;;;;;0.38;0.10;;;20.80;55.30;;;;;;5003777;28;20052;-54
2022/12/29 05:26:27;;;;;;;0.55;0.00;;;20.80;55.20;;;;;;5010469;28;20132;-52
2022/12/29 05:29:16;;;;;;;0.63;0.10;;;20.80;55.90;;;;;;5066314;28;20056;-55
2022/12/29 05:31:43;;;;;;;2.08;0.10;;;20.80;55.30;;;;;;5088515;28;20052;-55
2022/12/29 05:34:12;;;;;;;1.38;0.10;;;20.80;55.30;;;;;;5088474;28;20108;-53
2022/12/29 05:36:40;;;;;;;0.25;0.10;;;20.80;55.40;;;;;;5087589;28;20102;-55
2022/12/29 05:39:09;;;;;;;1.10;0.00;;;20.70;55.40;;;;;;5087749;28;20056;-54
2022/12/29 05:41:37;;;;;;;3.90;0.20;;;20.70;55.30;;;;;;5089294;28;20055;-50
2022/12/29 05:44:26;;;;;;;0.50;0.10;;;20.70;55.30;;;;;;5088969;28;20056;-55
2022/12/29 05:47:16;;;;;;;2.55;0.20;;;20.70;55.50;;;;;;5089429;28;20048;-54
2022/12/29 05:49:49;;;;;;;0.85;0.03;;;20.70;55.50;;;;;;5087498;28;20075;-51
2022/12/29 05:52:28;;;;;;;1.38;0.63;;;20.70;55.50;;;;;;5087414;28;20036;-54
2022/12/29 05:54:55;;;;;;;0.57;0.10;;;20.70;55.50;;;;;;5087537;28;20040;-51
2022/12/29 05:57:23;;;;;;;1.98;0.68;;;20.70;55.50;;;;;;5087412;28;20039;-54
2022/12/29 06:00:01;;;;;;;1.52;0.10;;;20.70;55.40;;;;;;5087264;28;20059;-53
2022/12/29 06:02:30;;;;;;;1.83;0.10;;;20.70;55.20;;;;;;5087544;28;20067;-51
2022/12/29 06:04:57;;;;;;;0.30;0.30;;;20.70;55.20;;;;;;5086901;28;20127;-53
2022/12/29 06:07:24;;;;;;;2.33;0.10;;;20.70;55.20;;;;;;5099718;28;20063;-49
2022/12/29 06:09:51;;;;;;;1.35;0.10;;;20.70;55.10;;;;;;5088814;28;20047;-52
2022/12/29 06:12:19;;;;;;;3.30;0.10;;;20.70;55.00;;;;;;5067225;28;20501;-50
2022/12/29 06:14:50;;;;;;;3.47;0.10;;;20.70;54.90;;;;;;5075149;28;20229;-52
2022/12/29 06:17:18;;;;;;;4.22;0.10;;;20.70;55.10;;;;;;5088850;28;20043;-52
2022/12/29 06:19:45;;;;;;;2.40;0.10;;;20.70;55.10;;;;;;5087133;28;20504;-52
2022/12/29 06:22:13;;;;;;;1.30;0.10;;;20.70;55.00;;;;;;5086822;28;20097;-52
2022/12/29 06:24:41;;;;;;;1.42;0.10;;;20.70;55.00;;;;;;5086922;28;20040;-53
2022/12/29 06:27:08;;;;;;;3.78;0.10;;;20.70;55.00;;;;;;5087056;28;20097;-54
2022/12/29 06:29:36;;;;;;;2.90;0.10;;;20.70;54.90;;;;;;5101742;28;20042;-54
2022/12/29 06:32:04;;;;;;;1.48;0.20;;;20.70;54.90;;;;;;5090446;28;20044;-49
2022/12/29 06:34:34;;;;;;;1.35;0.10;;;20.70;55.00;;;;;;5086579;28;20085;-53
2022/12/29 06:37:02;;;;;;;1.50;0.30;;;20.70;54.80;;;;;;5085702;28;20071;-54
2022/12/29 06:39:29;;;;;;;1.30;0.10;;;20.70;54.90;;;;;;5087464;28;20044;-54
2022/12/29 06:42:06;;;;;;;1.00;0.10;;;20.60;55.40;;;;;;5086455;28;20059;-51
2022/12/29 06:44:45;;;;;;;1.88;0.10;;;20.70;55.00;;;;;;5087900;28;20508;-53
2022/12/29 06:47:13;;;;;;;1.30;0.10;;;20.60;55.10;;;;;;5086941;28;20105;-50
2022/12/29 06:49:41;;;;;;;1.27;0.10;;;20.60;55.20;;;;;;5087886;28;20043;-54
2022/12/29 06:52:08;;;;;;;1.45;0.10;;;20.60;55.30;;;;;;5089841;28;20149;-51
2022/12/29 06:54:35;;;;;;;1.45;0.10;;;20.60;55.30;;;;;;5087990;28;20045;-54
2022/12/29 06:57:02;;;;;;;0.90;0.10;;;20.60;55.20;;;;;;5087680;28;20651;-53
2022/12/29 06:59:29;;;;;;;2.33;0.32;;;20.60;55.30;;;;;;5088014;28;20036;-53
2022/12/29 07:01:56;;;;;;;2.05;0.20;;;20.60;55.30;;;;;;5087569;28;20513;-54
2022/12/29 07:04:23;;;;;;;1.50;0.10;;;20.60;55.40;;;;;;5087669;28;20050;-53
2022/12/29 07:06:51;;;;;;;5.38;1.10;;;20.60;55.40;;;;;;5087740;28;20114;-52
2022/12/29 07:09:18;;;;;;;1.48;0.10;;;20.60;55.30;;;;;;5087573;28;20044;-52
2022/12/29 07:11:46;;;;;;;2.75;0.17;;;20.60;55.30;;;;;;5087831;28;20121;-53
2022/12/29 07:14:13;;;;;;;1.90;0.15;;;20.60;55.20;;;;;;5087393;28;20090;-52
2022/12/29 07:16:40;;;;;;;2.60;0.25;;;20.60;55.20;;;;;;5087566;28;20489;-55
2022/12/29 07:19:07;;;;;;;3.40;0.10;;;20.60;55.30;;;;;;5087032;28;20040;-54
2022/12/29 07:21:34;;;;;;;1.45;0.10;;;20.60;55.40;;;;;;5087494;28;20071;-54
2022/12/29 07:24:02;;;;;;;2.85;0.52;;;20.60;55.40;;;;;;5087092;28;20043;-53
2022/12/29 07:26:29;;;;;;;3.47;0.20;;;20.60;55.40;;;;;;5087093;28;20115;-52
2022/12/29 07:28:56;;;;;;;1.15;0.20;;;20.60;55.40;;;;;;5087164;28;20040;-53
2022/12/29 07:31:25;;;;;;;1.23;0.35;;;20.60;55.40;;;;;;5086912;28;20059;-54
2022/12/29 07:33:52;;;;;;;0.57;0.22;;;20.60;55.50;;;;;;5087003;28;20043;-52
2022/12/29 07:36:19;;;;;;;2.45;0.10;;;20.60;55.40;;;;;;5087010;28;20119;-53
2022/12/29 07:38:46;;;;;;;2.95;0.77;;;20.60;55.30;;;;;;5087015;28;20044;-53
2022/12/29 07:41:15;;;;;;;3.35;0.10;;;20.60;55.30;;;;;;5086984;28;20101;-51
2022/12/29 07:43:41;;;;;;;2.53;0.40;;;20.60;55.40;;;;;;5087079;28;20058;-53
2022/12/29 07:46:30;;;;;;;3.40;0.10;;;20.60;55.50;;;;;;5085665;28;20390;-53
2022/12/29 07:48:57;;;;;;;2.10;0.20;;;20.60;55.50;;;;;;5096956;28;20134;-53
2022/12/29 07:51:24;;;;;;;5.13;0.60;;;20.60;55.60;;;;;;5088199;28;20060;-54
2022/12/29 07:53:51;;;;;;;5.30;0.17;;;20.60;55.70;;;;;;5087583;28;20362;-53
2022/12/29 07:56:19;;;;;;;3.20;0.35;;;20.50;55.60;;;;;;5087362;28;20036;-55
2022/12/29 07:58:46;;;;;;;2.88;0.20;;;20.60;55.60;;;;;;5086745;28;20048;-54
2022/12/29 08:01:13;;;;;;;2.83;0.10;;;20.50;55.70;;;;;;5086386;28;20785;-53
2022/12/29 08:03:41;;;;;;;3.55;0.88;;;20.60;55.70;;;;;;5086764;28;20044;-54
2022/12/29 08:06:10;;;;;;;6.10;1.25;;;20.60;55.90;;;;;;5086592;28;20046;-54
2022/12/29 08:08:37;;;;;;;1.75;0.63;;;20.60;55.90;;;;;;5100667;28;20131;-53
2022/12/29 08:11:05;;;;;;;0.82;0.10;;;20.50;55.90;;;;;;5092655;28;20097;-55
2022/12/29 08:13:33;;;;;;;4.38;0.13;;;20.60;56.00;;;;;;5086414;28;20047;-55
2022/12/29 08:16:00;;;;;;;1.92;0.15;;;20.50;55.80;;;;;;5085943;28;20451;-51
2022/12/29 08:18:27;;;;;;;2.28;0.10;;;20.60;55.60;;;;;;5086983;28;20075;-54
2022/12/29 08:20:54;;;;;;;6.00;0.10;;;20.50;55.70;;;;;;5086717;28;20036;-53
2022/12/29 08:23:21;;;;;;;3.38;0.52;;;20.50;55.60;;;;;;5085148;28;20138;-51
2022/12/29 08:25:57;;;;;;;5.72;0.30;;;20.60;55.70;;;;;;5103305;28;20046;-52
2022/12/29 08:28:24;;;;;;;3.10;0.10;;;20.50;55.60;;;;;;5095920;28;20501;-52
2022/12/29 08:30:53;;;;;;;1.90;0.30;;;20.60;55.60;;;;;;5085979;28;20035;-53
2022/12/29 08:33:20;;;;;;;4.10;0.20;;;20.60;55.60;;;;;;5086630;28;20140;-51
2022/12/29 08:35:47;;;;;;;2.28;0.57;;;20.50;55.50;;;;;;5086868;28;20774;-54
2022/12/29 08:38:14;;;;;;;3.25;0.10;;;20.60;55.50;;;;;;5087938;28;20044;-53
2022/12/29 08:40:41;;;;;;;1.20;0.30;;;20.60;55.40;;;;;;5090403;28;20047;-50
2022/12/29 08:43:08;;;;;;;3.10;0.52;;;20.50;55.50;;;;;;5090526;28;20135;-52
2022/12/29 08:45:35;;;;;;;3.03;0.10;;;20.60;55.40;;;;;;5090133;28;20044;-51
2022/12/29 08:48:04;;;;;;;3.17;0.43;;;20.60;55.30;;;;;;5092477;28;20138;-55
2022/12/29 08:50:31;;;;;;;3.33;0.30;;;20.60;55.40;;;;;;5090778;28;20106;-53
2022/12/29 08:52:58;;;;;;;0.93;0.30;;;20.60;55.40;;;;;;5090337;28;20160;-51
2022/12/29 08:55:25;;;;;;;2.55;0.10;;;20.60;55.40;;;;;;5090428;28;20512;-53
2022/12/29 08:57:53;;;;;;;2.17;0.20;;;20.50;55.70;;;;;;5096885;28;20078;-53
2022/12/29 09:00:21;;;;;;;3.40;0.20;;;20.50;55.10;;;;;;5088797;28;20047;-50
2022/12/29 09:02:48;;;;;;;2.33;0.30;;;20.50;55.10;;;;;;5089474;28;20048;-51
2022/12/29 09:05:17;;;;;;;2.97;0.77;;;20.60;55.10;;;;;;5074554;28;20078;-51
2022/12/29 09:07:44;;;;;;;3.15;0.63;;;20.60;55.10;;;;;;5090010;28;20064;-53
2022/12/29 09:10:11;;;;;;;2.75;0.55;;;20.50;55.10;;;;;;5090079;28;20044;-52
2022/12/29 09:12:38;;;;;;;7.20;1.15;;;20.60;54.90;;;;;;5089482;28;20040;-52
2022/12/29 09:15:06;;;;;;;1.50;0.10;;;20.50;54.80;;;;;;5089990;28;20422;-52
2022/12/29 09:17:46;;;;;;;3.60;0.38;;;20.60;54.80;;;;;;5088367;28;20835;-50
2022/12/29 09:20:14;;;;;;;2.63;0.25;;;20.60;54.90;;;;;;5084524;28;20459;-56
2022/12/29 09:22:43;;;;;;;10.60;0.40;;;20.60;55.10;;;;;;5081800;28;20635;-56
2022/12/29 09:25:10;;;;;;;3.40;0.43;;;20.60;55.50;;;;;;5089138;28;20075;-56
2022/12/29 09:27:38;;;;;;;4.20;0.17;;;20.60;55.90;;;;;;5090780;28;20046;-53
2022/12/29 09:30:07;;;;;;;3.67;1.20;;;20.70;56.20;;;;;;5088741;28;20076;-59
2022/12/29 09:32:35;;;;;;;3.88;0.30;;;20.70;56.20;;;;;;5089286;28;20185;-60
2022/12/29 09:35:02;;;;;;;4.07;0.20;;;20.80;56.20;;;;;;5087770;28;20088;-64
2022/12/29 09:37:29;;;;;;;3.38;0.20;;;20.90;56.10;;;;;;5084818;28;20151;-63
2022/12/29 09:39:58;;;;;;;3.22;0.20;;;20.90;55.90;;;;;;5088637;28;20059;-52
2022/12/29 09:42:28;;;;;;;2.50;0.40;;;21.00;55.70;;;;;;5088560;28;20526;-61
2022/12/29 09:45:11;;;;;;;2.50;0.20;;;21.10;55.50;;;;;;5088793;28;20054;-57
2022/12/29 09:47:38;;;;;;;4.28;0.20;;;21.10;55.20;;;;;;5088945;28;20068;-56
2022/12/29 09:50:15;;;;;;;2.20;0.10;;;21.10;55.00;;;;;;5087671;28;20046;-55
2022/12/29 09:52:48;;;;;;;5.28;0.68;;;21.20;54.80;;;;;;5088494;28;20310;-54
2022/12/29 09:55:21;;;;;;;4.90;0.30;;;21.30;54.60;;;;;;5088706;28;20050;-56
2022/12/29 09:57:54;;;;;;;2.88;0.10;;;21.30;54.40;;;;;;5088060;28;20036;-55
2022/12/29 10:00:24;;;;;;;0.85;0.30;;;21.40;54.30;;;;;;5072599;28;20485;-54
2022/12/29 10:02:56;;;;;;;0.77;0.10;;;21.40;54.10;;;;;;5087431;28;20044;-55
2022/12/29 10:05:37;;;;;;;2.92;1.42;;;21.40;54.00;;;;;;5088520;28;20059;-55
2022/12/29 10:08:21;;;;;;;0.73;0.10;;;21.50;53.80;;;;;;5088726;28;20483;-55
2022/12/29 10:10:56;;;;;;;1.90;0.17;;;21.50;53.70;;;;;;5088903;28;20862;-56
2022/12/29 10:13:32;;;;;;;5.33;0.77;;;21.50;53.50;;;;;;5088325;28;20127;-55
2022/12/29 10:16:05;;;;;;;5.50;0.95;;;21.50;53.40;;;;;;5088356;28;20467;-54
2022/12/29 10:19:10;;;;;;;3.00;0.25;;;21.60;53.40;;;;;;5088810;28;20127;-56
2022/12/29 10:21:48;;;;;;;4.70;0.50;;;21.60;53.20;;;;;;5072145;28;20098;-54
2022/12/29 10:24:17;;;;;;;8.07;1.50;;;21.60;53.10;;;;;;5087988;28;20048;-56
2022/12/29 10:26:47;;;;;;;3.15;0.20;;;21.60;53.00;;;;;;5088120;28;20050;-54
2022/12/29 10:29:18;;;;;;;6.05;0.73;;;21.70;52.90;;;;;;5088086;28;20119;-52
2022/12/29 10:31:50;;;;;;;5.65;0.80;;;21.70;52.70;;;;;;5088095;28;20831;-53
2022/12/29 10:34:22;;;;;;;4.88;0.30;;;21.70;52.60;;;;;;5088167;28;20042;-56
2022/12/29 10:36:50;;;;;;;3.38;0.20;;;21.70;52.40;;;;;;5088092;28;20078;-54
2022/12/29 10:39:23;;;;;;;1.65;0.43;;;21.70;52.30;;;;;;5087777;28;20056;-53
2022/12/29 10:41:56;;;;;;;5.45;0.20;;;21.70;52.30;;;;;;5087431;28;20043;-54
2022/12/29 10:44:33;;;;;;;1.27;0.10;;;21.80;52.20;;;;;;5084273;28;20394;-56
2022/12/29 10:47:04;;;;;;;2.47;0.52;;;21.80;52.10;;;;;;5087597;28;20048;-55
2022/12/29 10:49:38;;;;;;;3.67;0.30;;;21.80;52.00;;;;;;5086268;28;20044;-54
2022/12/29 10:52:05;;;;;;;7.75;0.45;;;21.80;52.00;;;;;;5087358;28;20072;-55
2022/12/29 10:54:39;;;;;;;5.65;0.28;;;21.80;51.90;;;;;;5088233;28;20514;-68
2022/12/29 10:57:12;;;;;;;4.45;0.35;;;21.90;51.90;;;;;;5087736;28;20051;-63
2022/12/29 10:59:40;;;;;;;3.80;2.33;;;21.90;52.00;;;;;;5087382;28;20081;-55
2022/12/29 11:02:27;;;;;;;15.13;0.43;;;21.90;52.00;;;;;;5095288;28;20040;-53
2022/12/29 11:05:02;;;;;;;6.85;0.68;;;22.00;51.90;;;;;;5086119;28;20075;-50
2022/12/29 11:07:30;;;;;;;9.57;0.57;;;22.00;51.90;;;;;;5080980;28;20496;-51
2022/12/29 11:10:17;;;;;;;13.40;0.75;;;22.00;51.80;;;;;;5087021;28;20051;-54
2022/12/29 11:12:55;;;;;;;;;;;22.10;51.70;;;;;;5076041;28;20068;-54
2022/12/29 11:15:22;;;;;;;6.15;0.50;;;22.00;51.90;;;;;;5094683;28;19994;-55
2022/12/29 11:17:51;;;;;;;8.88;0.40;;;22.00;52.00;;;;;;5087237;28;20155;-53
2022/12/29 11:20:38;;;;;;;8.48;0.30;;;22.10;51.90;;;;;;5087314;28;20039;-54
2022/12/29 11:23:22;;;;;;;9.55;0.75;;;22.10;51.60;;;;;;5082074;28;20463;-55
2022/12/29 11:26:07;;;;;;;5.80;0.40;;;22.10;51.50;;;;;;5087299;28;20130;-52
2022/12/29 11:28:37;;;;;;;4.90;0.40;;;22.20;51.40;;;;;;5084682;28;20826;-51
2022/12/29 11:31:06;;;;;;;2.50;0.22;;;22.10;51.30;;;;;;5087216;28;20309;-60
2022/12/29 11:33:35;;;;;;;2.22;0.28;;;22.20;51.20;;;;;;5086837;28;20051;-60
2022/12/29 11:36:05;;;;;;;2.97;0.25;;;22.20;51.20;;;;;;5086546;28;20040;-51
2022/12/29 11:38:36;;;;;;;5.53;0.77;;;22.20;52.00;;;;;;5078994;28;20068;-53
2022/12/29 11:41:04;;;;;;;8.68;0.70;;;22.30;51.70;;;;;;5077666;28;20165;-55
2022/12/29 11:43:33;;;;;;;4.90;0.32;;;22.30;51.60;;;;;;5087159;28;20040;-58
2022/12/29 11:46:03;;;;;;;9.55;0.70;;;22.30;51.50;;;;;;5087396;28;20401;-56
2022/12/29 11:48:34;;;;;;;5.85;0.50;;;22.40;51.60;;;;;;5087842;28;20134;-55
2022/12/29 11:51:01;;;;;;;4.40;0.47;;;22.40;51.70;;;;;;5093652;28;20127;-55
2022/12/29 11:53:37;;;;;;;15.30;1.17;;;22.40;51.80;;;;;;5087696;28;20112;-57
2022/12/29 11:56:09;;;;;;;15.30;1.25;;;22.40;52.00;;;;;;5087563;28;20119;-56
2022/12/29 11:58:37;;;;;;;8.63;0.57;;;22.50;52.30;;;;;;5087351;28;20777;-56
2022/12/29 12:01:12;;;;;;;10.63;0.52;;;22.50;52.40;;;;;;5086847;28;20064;-58
2022/12/29 12:03:46;;;;;;;10.23;0.73;;;22.60;52.60;;;;;;5087587;28;20520;-53
2022/12/29 12:06:17;;;;;;;10.05;0.40;;;22.60;53.00;;;;;;5087505;28;20057;-56
2022/12/29 12:08:49;;;;;;;9.55;1.23;;;22.60;53.60;;;;;;5087005;28;20039;-56
2022/12/29 12:11:20;;;;;;;17.58;1.70;;;22.70;53.70;;;;;;5088038;28;20089;-62
2022/12/29 12:13:59;;;;;;;7.90;1.02;;;22.70;54.00;;;;;;5088262;28;20063;-64
2022/12/29 12:16:37;;;;;;;6.07;0.70;;;22.70;54.10;;;;;;5086610;28;20043;-59
2022/12/29 12:19:14;;;;;;;8.77;1.13;;;22.80;54.20;;;;;;5087989;28;20139;-59
2022/12/29 12:21:46;;;;;;;6.80;0.40;;;22.90;54.40;;;;;;5081956;28;20121;-58
2022/12/29 12:24:27;;;;;;;4.15;1.10;;;22.80;54.40;;;;;;5081054;28;20131;-59
2022/12/29 12:27:01;;;;;;;9.70;0.80;;;22.90;54.50;;;;;;5087178;28;20500;-59
2022/12/29 12:29:38;;;;;;;10.23;1.95;;;22.90;54.30;;;;;;5087232;28;20071;-59
2022/12/29 12:32:15;;;;;;;13.13;0.82;;;22.90;54.50;;;;;;5086600;28;20040;-58
2022/12/29 12:34:44;;;;;;;23.05;0.80;;;22.90;54.90;;;;;;5087309;28;20040;-58
2022/12/29 12:37:34;;;;;;;21.42;0.95;;;22.90;55.00;;;;;;5086668;28;20040;-56
2022/12/29 12:40:40;;;;;;;11.38;1.48;;;23.00;55.00;;;;;;5088622;28;20652;-57
2022/12/29 12:43:29;;;;;;;18.23;2.65;;;23.00;54.90;;;;;;5086383;28;20045;-55
2022/12/29 12:46:07;;;;;;;13.02;0.75;;;23.00;55.30;;;;;;5087230;28;20143;-51
2022/12/29 12:48:57;;;;;;;10.48;0.90;;;23.00;53.30;;;;;;5087702;28;20059;-58
2022/12/29 12:51:34;;;;;;;9.93;0.82;;;23.10;50.70;;;;;;5087085;28;20040;-55
2022/12/29 12:54:22;;;;;;;13.90;0.40;;;23.00;48.80;;;;;;5095630;28;20040;-69
2022/12/29 12:57:01;;;;;;;8.45;0.57;;;23.00;47.50;;;;;;5094411;28;20063;-67
2022/12/29 12:59:42;;;;;;;6.63;0.80;;;22.90;46.70;;;;;;5093546;28;20070;-71
2022/12/29 13:02:22;;;;;;;4.38;0.40;;;22.70;45.60;;;;;;5092396;28;20044;-67
2022/12/29 13:05:04;;;;;;;4.35;0.40;;;22.60;45.00;;;;;;5080407;28;20052;-68
2022/12/29 13:07:45;;;;;;;3.33;0.20;;;22.50;44.20;;;;;;5090512;28;20044;-62
2022/12/29 13:10:33;;;;;;;9.15;0.47;;;22.40;43.70;;;;;;5087678;28;20036;-59
2022/12/29 13:13:27;;;;;;;9.05;0.30;;;22.40;43.50;;;;;;5082643;28;20334;-60
2022/12/29 13:16:00;;;;;;;5.63;0.30;;;22.30;43.80;;;;;;5086486;28;20064;-60
2022/12/29 13:18:33;;;;;;;20.15;1.55;;;22.20;43.00;;;;;;5087273;28;20076;-59
2022/12/29 13:21:10;;;;;;;17.15;1.75;;;22.20;42.90;;;;;;5086038;28;20066;-51
2022/12/29 13:23:45;;;;;;;15.88;0.63;;;22.10;42.50;;;;;;5086538;28;20152;-58
2022/12/29 13:26:17;;;;;;;10.80;0.30;;;22.00;42.60;;;;;;5088066;28;20151;-62
2022/12/29 13:28:54;;;;;;;10.48;0.30;;;22.00;42.60;;;;;;5095068;28;20059;-62
2022/12/29 13:31:32;;;;;;;8.05;0.82;;;21.90;42.30;;;;;;5089843;28;20048;-61
2022/12/29 13:34:06;;;;;;;5.03;0.40;;;21.90;42.10;;;;;;5088114;28;20113;-60
2022/12/29 13:36:42;;;;;;;6.95;1.00;;;21.80;42.00;;;;;;5087231;28;20060;-59
2022/12/29 13:39:16;;;;;;;6.35;1.73;;;21.70;42.00;;;;;;5090659;28;20117;-57
2022/12/29 13:41:47;;;;;;;10.25;0.80;;;21.60;42.80;;;;;;5089258;28;20123;-62
2022/12/29 13:44:19;;;;;;;6.70;0.63;;;21.60;43.50;;;;;;5088372;28;20599;-62